Portada
METAR-TAF:

METAR-TAF

Aeroports :

Leigh Creek, Austràlia

latitud: 30-35-54S, longitud: 138-25-36E, altitud: 261 m

Observació

L'informe es va fer fa 45 minuts, a les 16:00 UTC
Vent 4 kt del Nord
Temperatura 21°C
Humitat 33%
Pressió 1015 hPa

METAR: YLEC 201600Z AUTO 35004KT //// // ////// 21/04 Q1015

Hora: 02:15 (16:45 UTC)


TAF: manca

Observacions i pronòstics meteorològics de més de 4000 aeroports (METAR i TAF).

Les estacions disponibles són els punts grocs i vermells al mapa.

Posi el ratolí al punt desitjat per veure el nom de l'estació.

Feu clic per veure les observacions i els pronòstics meteorològics.

Per canviar el mapa: feu clic els botons verds amb una creu de color negre per apropar; al botó verd amb un guió per allunyar la imatge; o en les fletxes verdes per a mapes adjacents.


METAR-TAF: